Accueil
METAR-TAF:

METAR-TAF

Aéroports :

Nanaimo, Colombie-Britannique, Canada

latitude: 49-03N, longitude: 123-52W, altitude: 28 m

Observation

Le bulletin a été fait il y a 56 minutes, à 15:00 UTC
Vent 3 kt de ouest, variant entre ouest/sud-ouest et nord/nord-ouest
Température -3°C
Humidité 93%
Pression 1023 hPa
Visibilité: 48.3 km
Nuages épars à une hauteur de 2400 ft
Nuages fragmentés à une hauteur de 3500 ft
Nuages fragmentés à une hauteur de 11000 ft

METAR: CYCD 201500Z 28003KT 250V330 30SM SCT024 BKN035 BKN110 M03/M04 A3020 RMK SC3SC3AC1 SLP228

Heure: 07:56 (15:56 UTC)

Prévision

Le bulletin a été fait il y a 16 heures et 18 minutes, à 23:38 UTC
Prévision valable du 20 à 00 UTC au 20 à 05 UTC
Vent 5 kt de est/nord-est
Visibilité: 10 km
Quelques nuages à une hauteur de 3000 ft
Nuages fragmentés à une hauteur de 22000 ft

TAF: CYCD 192338Z 2000/2005 06005KT P6SM FEW030 BKN220 RMK NXT FCST WILL BE ISSUED AT 201545Z

Observations et prévisions météorologiques de plus de 4000 aéroports (messages METAR et TAF).

Les stations disponibles sont représentées par des disques jaunes et rouges sur la carte.

Passer la souris dessus pour voir le nom de la station.

Cliquer dessus pour voir les observations et prévisions météorologiques.

Pour changer de carte: cliquez sur les boutons verts avec une croix noire pour zoomer, sur le bouton vert avec un tiret pour effectuer un zoom arrière, ou sur les flèches vertes pour les cartes adjacentes.


METAR-TAF: